sensor_id;sensor_type;location;lat;lon;timestamp;P1;durP1;ratioP1;P2;durP2;ratioP2
53044;SDS011;38930;52.766;6.884;2023-02-28T00:00:29;10.45;;;4.78;;
53044;SDS011;38930;52.766;6.884;2023-02-28T00:02:56;10.20;;;4.60;;
53044;SDS011;38930;52.766;6.884;2023-02-28T00:05:23;10.25;;;4.63;;
53044;SDS011;38930;52.766;6.884;2023-02-28T00:10:19;7.82;;;4.30;;
53044;SDS011;38930;52.766;6.884;2023-02-28T00:12:48;9.88;;;3.67;;
53044;SDS011;38930;52.766;6.884;2023-02-28T00:15:15;8.52;;;4.15;;
53044;SDS011;38930;52.766;6.884;2023-02-28T00:17:41;9.07;;;3.88;;
53044;SDS011;38930;52.766;6.884;2023-02-28T00:20:07;6.90;;;3.63;;
53044;SDS011;38930;52.766;6.884;2023-02-28T00:22:35;10.40;;;4.30;;
53044;SDS011;38930;52.766;6.884;2023-02-28T00:25:03;11.65;;;4.05;;
53044;SDS011;38930;52.766;6.884;2023-02-28T00:27:29;7.93;;;4.13;;
53044;SDS011;38930;52.766;6.884;2023-02-28T00:29:55;12.10;;;3.78;;
53044;SDS011;38930;52.766;6.884;2023-02-28T00:32:21;8.98;;;4.15;;
53044;SDS011;38930;52.766;6.884;2023-02-28T00:34:46;6.78;;;4.05;;
53044;SDS011;38930;52.766;6.884;2023-02-28T00:37:12;6.95;;;3.47;;
53044;SDS011;38930;52.766;6.884;2023-02-28T00:39:38;7.88;;;4.32;;
53044;SDS011;38930;52.766;6.884;2023-02-28T00:42:05;9.35;;;4.18;;
53044;SDS011;38930;52.766;6.884;2023-02-28T00:44:31;7.78;;;4.00;;
53044;SDS011;38930;52.766;6.884;2023-02-28T00:46:57;8.25;;;3.75;;
53044;SDS011;38930;52.766;6.884;2023-02-28T00:49:24;9.68;;;3.95;;
53044;SDS011;38930;52.766;6.884;2023-02-28T00:51:51;11.00;;;4.20;;
53044;SDS011;38930;52.766;6.884;2023-02-28T00:54:17;7.72;;;4.32;;
53044;SDS011;38930;52.766;6.884;2023-02-28T00:56:42;6.88;;;4.00;;
53044;SDS011;38930;52.766;6.884;2023-02-28T00:59:08;6.30;;;3.78;;
53044;SDS011;38930;52.766;6.884;2023-02-28T01:01:34;8.23;;;4.10;;
53044;SDS011;38930;52.766;6.884;2023-02-28T01:04:00;10.45;;;4.38;;
53044;SDS011;38930;52.766;6.884;2023-02-28T01:06:25;6.88;;;3.90;;
53044;SDS011;38930;52.766;6.884;2023-02-28T01:08:51;6.18;;;4.28;;
53044;SDS011;38930;52.766;6.884;2023-02-28T01:11:17;6.35;;;3.53;;
53044;SDS011;38930;52.766;6.884;2023-02-28T01:13:43;5.93;;;3.55;;
53044;SDS011;38930;52.766;6.884;2023-02-28T01:16:10;8.00;;;3.92;;
53044;SDS011;38930;52.766;6.884;2023-02-28T01:18:36;12.27;;;4.07;;
53044;SDS011;38930;52.766;6.884;2023-02-28T01:21:03;8.15;;;3.80;;
53044;SDS011;38930;52.766;6.884;2023-02-28T01:23:34;10.18;;;3.75;;
53044;SDS011;38930;52.766;6.884;2023-02-28T01:28:37;12.35;;;4.00;;
53044;SDS011;38930;52.766;6.884;2023-02-28T01:31:02;5.22;;;4.07;;
53044;SDS011;38930;52.766;6.884;2023-02-28T01:33:28;6.22;;;3.85;;
53044;SDS011;38930;52.766;6.884;2023-02-28T01:36:00;10.30;;;4.70;;
53044;SDS011;38930;52.766;6.884;2023-02-28T01:38:27;7.15;;;4.20;;
53044;SDS011;38930;52.766;6.884;2023-02-28T01:40:54;9.10;;;4.20;;
53044;SDS011;38930;52.766;6.884;2023-02-28T01:43:21;7.45;;;4.57;;
53044;SDS011;38930;52.766;6.884;2023-02-28T01:45:48;7.80;;;4.22;;
53044;SDS011;38930;52.766;6.884;2023-02-28T01:48:14;7.80;;;4.45;;
53044;SDS011;38930;52.766;6.884;2023-02-28T01:50:41;8.60;;;4.38;;
53044;SDS011;38930;52.766;6.884;2023-02-28T01:53:13;7.75;;;4.75;;
53044;SDS011;38930;52.766;6.884;2023-02-28T01:55:42;10.50;;;5.03;;
53044;SDS011;38930;52.766;6.884;2023-02-28T01:58:12;11.52;;;4.50;;
53044;SDS011;38930;52.766;6.884;2023-02-28T02:00:39;10.50;;;4.30;;
53044;SDS011;38930;52.766;6.884;2023-02-28T02:03:11;6.45;;;4.43;;
53044;SDS011;38930;52.766;6.884;2023-02-28T02:05:39;9.77;;;5.07;;
53044;SDS011;38930;52.766;6.884;2023-02-28T02:08:09;10.27;;;4.75;;
53044;SDS011;38930;52.766;6.884;2023-02-28T02:10:44;12.20;;;5.38;;
53044;SDS011;38930;52.766;6.884;2023-02-28T02:16:08;9.55;;;5.40;;
53044;SDS011;38930;52.766;6.884;2023-02-28T02:21:47;12.82;;;5.78;;
53044;SDS011;38930;52.766;6.884;2023-02-28T02:33:13;10.55;;;5.65;;
53044;SDS011;38930;52.766;6.884;2023-02-28T02:36:03;14.20;;;5.78;;
53044;SDS011;38930;52.766;6.884;2023-02-28T02:44:15;8.68;;;5.35;;
53044;SDS011;38930;52.766;6.884;2023-02-28T02:46:47;13.82;;;5.55;;
53044;SDS011;38930;52.766;6.884;2023-02-28T02:49:16;11.05;;;5.47;;
53044;SDS011;38930;52.766;6.884;2023-02-28T02:51:51;15.20;;;5.68;;
53044;SDS011;38930;52.766;6.884;2023-02-28T02:54:29;9.02;;;5.30;;
53044;SDS011;38930;52.766;6.884;2023-02-28T02:57:00;11.43;;;5.60;;
53044;SDS011;38930;52.766;6.884;2023-02-28T02:59:30;9.80;;;5.45;;
53044;SDS011;38930;52.766;6.884;2023-02-28T03:01:59;13.00;;;5.50;;
53044;SDS011;38930;52.766;6.884;2023-02-28T03:04:30;12.23;;;5.97;;
53044;SDS011;38930;52.766;6.884;2023-02-28T03:06:59;9.25;;;5.80;;
53044;SDS011;38930;52.766;6.884;2023-02-28T03:09:25;8.15;;;5.40;;
53044;SDS011;38930;52.766;6.884;2023-02-28T03:11:52;12.48;;;6.00;;
53044;SDS011;38930;52.766;6.884;2023-02-28T03:24:49;9.40;;;5.32;;
53044;SDS011;38930;52.766;6.884;2023-02-28T03:27:37;16.77;;;6.75;;
53044;SDS011;38930;52.766;6.884;2023-02-28T03:32:57;13.65;;;7.35;;
53044;SDS011;38930;52.766;6.884;2023-02-28T03:35:34;14.05;;;7.10;;
53044;SDS011;38930;52.766;6.884;2023-02-28T03:38:05;12.75;;;6.95;;
53044;SDS011;38930;52.766;6.884;2023-02-28T03:40:43;14.60;;;6.82;;
53044;SDS011;38930;52.766;6.884;2023-02-28T03:43:14;15.13;;;6.72;;
53044;SDS011;38930;52.766;6.884;2023-02-28T03:45:46;12.23;;;7.22;;
53044;SDS011;38930;52.766;6.884;2023-02-28T03:48:23;14.07;;;7.65;;
53044;SDS011;38930;52.766;6.884;2023-02-28T03:50:55;10.70;;;6.60;;
53044;SDS011;38930;52.766;6.884;2023-02-28T03:53:29;12.05;;;6.00;;
53044;SDS011;38930;52.766;6.884;2023-02-28T03:56:12;13.98;;;6.60;;
53044;SDS011;38930;52.766;6.884;2023-02-28T03:58:53;13.35;;;5.93;;
53044;SDS011;38930;52.766;6.884;2023-02-28T04:01:31;12.30;;;5.85;;
53044;SDS011;38930;52.766;6.884;2023-02-28T04:04:01;12.57;;;6.10;;
53044;SDS011;38930;52.766;6.884;2023-02-28T04:06:27;10.88;;;6.30;;
53044;SDS011;38930;52.766;6.884;2023-02-28T04:08:56;13.75;;;6.30;;
53044;SDS011;38930;52.766;6.884;2023-02-28T04:11:23;14.20;;;6.47;;
53044;SDS011;38930;52.766;6.884;2023-02-28T04:13:56;10.48;;;6.03;;
53044;SDS011;38930;52.766;6.884;2023-02-28T04:16:22;12.63;;;6.93;;
53044;SDS011;38930;52.766;6.884;2023-02-28T04:18:47;9.57;;;6.45;;
53044;SDS011;38930;52.766;6.884;2023-02-28T04:21:13;10.20;;;6.07;;
53044;SDS011;38930;52.766;6.884;2023-02-28T04:23:39;13.88;;;6.20;;
53044;SDS011;38930;52.766;6.884;2023-02-28T04:26:05;10.93;;;6.00;;
53044;SDS011;38930;52.766;6.884;2023-02-28T04:28:31;11.38;;;6.88;;
53044;SDS011;38930;52.766;6.884;2023-02-28T04:30:58;13.00;;;6.82;;
53044;SDS011;38930;52.766;6.884;2023-02-28T04:33:26;15.05;;;6.60;;
53044;SDS011;38930;52.766;6.884;2023-02-28T04:35:59;11.23;;;6.47;;
53044;SDS011;38930;52.766;6.884;2023-02-28T04:38:34;9.35;;;6.28;;
53044;SDS011;38930;52.766;6.884;2023-02-28T04:41:01;9.98;;;6.35;;
53044;SDS011;38930;52.766;6.884;2023-02-28T04:43:27;15.73;;;6.50;;
53044;SDS011;38930;52.766;6.884;2023-02-28T04:45:53;15.73;;;6.28;;
53044;SDS011;38930;52.766;6.884;2023-02-28T04:48:23;11.98;;;6.90;;
53044;SDS011;38930;52.766;6.884;2023-02-28T04:50:49;13.00;;;6.47;;
53044;SDS011;38930;52.766;6.884;2023-02-28T04:53:15;10.70;;;6.50;;
53044;SDS011;38930;52.766;6.884;2023-02-28T04:55:41;14.68;;;6.82;;
53044;SDS011;38930;52.766;6.884;2023-02-28T04:58:07;9.82;;;6.35;;
53044;SDS011;38930;52.766;6.884;2023-02-28T05:00:32;10.88;;;6.10;;
53044;SDS011;38930;52.766;6.884;2023-02-28T05:02:58;12.55;;;6.55;;
53044;SDS011;38930;52.766;6.884;2023-02-28T05:05:23;13.07;;;6.38;;
53044;SDS011;38930;52.766;6.884;2023-02-28T05:07:49;11.07;;;6.32;;
53044;SDS011;38930;52.766;6.884;2023-02-28T05:10:15;13.75;;;6.65;;
53044;SDS011;38930;52.766;6.884;2023-02-28T05:12:40;11.63;;;5.93;;
53044;SDS011;38930;52.766;6.884;2023-02-28T05:15:07;7.80;;;5.85;;
53044;SDS011;38930;52.766;6.884;2023-02-28T05:17:37;11.45;;;6.38;;
53044;SDS011;38930;52.766;6.884;2023-02-28T05:20:03;10.02;;;5.95;;
53044;SDS011;38930;52.766;6.884;2023-02-28T05:22:30;8.73;;;6.03;;
53044;SDS011;38930;52.766;6.884;2023-02-28T05:24:55;10.15;;;5.93;;
53044;SDS011;38930;52.766;6.884;2023-02-28T05:27:21;9.00;;;5.85;;
53044;SDS011;38930;52.766;6.884;2023-02-28T05:29:46;10.63;;;5.97;;
53044;SDS011;38930;52.766;6.884;2023-02-28T05:32:12;13.48;;;5.75;;
53044;SDS011;38930;52.766;6.884;2023-02-28T05:34:38;7.95;;;5.63;;
53044;SDS011;38930;52.766;6.884;2023-02-28T05:37:05;9.43;;;6.05;;
53044;SDS011;38930;52.766;6.884;2023-02-28T05:39:32;9.13;;;5.57;;
53044;SDS011;38930;52.766;6.884;2023-02-28T05:41:58;8.15;;;5.55;;
53044;SDS011;38930;52.766;6.884;2023-02-28T05:44:23;8.55;;;5.95;;
53044;SDS011;38930;52.766;6.884;2023-02-28T05:46:49;8.82;;;5.70;;
53044;SDS011;38930;52.766;6.884;2023-02-28T05:49:15;11.48;;;5.90;;
53044;SDS011;38930;52.766;6.884;2023-02-28T05:51:41;14.15;;;6.05;;
53044;SDS011;38930;52.766;6.884;2023-02-28T05:54:06;12.65;;;6.03;;
53044;SDS011;38930;52.766;6.884;2023-02-28T05:56:33;11.38;;;5.38;;
53044;SDS011;38930;52.766;6.884;2023-02-28T05:59:04;8.88;;;5.85;;
53044;SDS011;38930;52.766;6.884;2023-02-28T06:01:42;7.68;;;5.43;;
53044;SDS011;38930;52.766;6.884;2023-02-28T06:04:13;9.65;;;5.68;;
53044;SDS011;38930;52.766;6.884;2023-02-28T06:06:43;10.13;;;5.78;;
53044;SDS011;38930;52.766;6.884;2023-02-28T06:11:35;9.55;;;5.43;;
53044;SDS011;38930;52.766;6.884;2023-02-28T06:14:01;9.60;;;5.35;;
53044;SDS011;38930;52.766;6.884;2023-02-28T06:16:28;9.40;;;5.93;;
53044;SDS011;38930;52.766;6.884;2023-02-28T06:18:59;8.88;;;5.35;;
53044;SDS011;38930;52.766;6.884;2023-02-28T06:21:26;12.10;;;6.25;;
53044;SDS011;38930;52.766;6.884;2023-02-28T06:23:53;11.20;;;5.32;;
53044;SDS011;38930;52.766;6.884;2023-02-28T06:26:19;7.05;;;4.93;;
53044;SDS011;38930;52.766;6.884;2023-02-28T06:28:45;7.53;;;5.47;;
53044;SDS011;38930;52.766;6.884;2023-02-28T06:31:11;7.50;;;5.25;;
53044;SDS011;38930;52.766;6.884;2023-02-28T06:33:38;8.00;;;5.90;;
53044;SDS011;38930;52.766;6.884;2023-02-28T06:36:05;9.70;;;5.60;;
53044;SDS011;38930;52.766;6.884;2023-02-28T06:38:32;9.10;;;5.43;;
53044;SDS011;38930;52.766;6.884;2023-02-28T06:40:58;11.40;;;5.55;;
53044;SDS011;38930;52.766;6.884;2023-02-28T06:43:27;9.52;;;5.15;;
53044;SDS011;38930;52.766;6.884;2023-02-28T06:45:54;7.47;;;4.80;;
53044;SDS011;38930;52.766;6.884;2023-02-28T06:48:21;8.40;;;5.47;;
53044;SDS011;38930;52.766;6.884;2023-02-28T06:50:47;9.07;;;5.80;;
53044;SDS011;38930;52.766;6.884;2023-02-28T06:53:13;6.82;;;5.35;;
53044;SDS011;38930;52.766;6.884;2023-02-28T06:55:39;11.07;;;6.00;;
53044;SDS011;38930;52.766;6.884;2023-02-28T06:58:06;8.25;;;5.40;;
53044;SDS011;38930;52.766;6.884;2023-02-28T07:00:40;8.57;;;5.40;;
53044;SDS011;38930;52.766;6.884;2023-02-28T07:03:07;8.32;;;5.45;;
53044;SDS011;38930;52.766;6.884;2023-02-28T07:05:34;7.38;;;5.03;;
53044;SDS011;38930;52.766;6.884;2023-02-28T07:08:00;8.05;;;4.60;;
53044;SDS011;38930;52.766;6.884;2023-02-28T07:10:26;9.30;;;4.88;;
53044;SDS011;38930;52.766;6.884;2023-02-28T07:12:52;6.78;;;4.85;;
53044;SDS011;38930;52.766;6.884;2023-02-28T07:15:18;7.05;;;5.15;;
53044;SDS011;38930;52.766;6.884;2023-02-28T07:17:43;8.70;;;4.55;;
53044;SDS011;38930;52.766;6.884;2023-02-28T07:20:09;13.23;;;5.32;;
53044;SDS011;38930;52.766;6.884;2023-02-28T07:22:35;6.03;;;4.90;;
53044;SDS011;38930;52.766;6.884;2023-02-28T07:25:00;9.30;;;5.28;;
53044;SDS011;38930;52.766;6.884;2023-02-28T07:27:26;6.82;;;5.38;;
53044;SDS011;38930;52.766;6.884;2023-02-28T07:29:52;6.43;;;5.32;;
53044;SDS011;38930;52.766;6.884;2023-02-28T07:32:18;9.48;;;5.43;;
53044;SDS011;38930;52.766;6.884;2023-02-28T07:34:44;5.97;;;5.10;;
53044;SDS011;38930;52.766;6.884;2023-02-28T07:37:10;6.22;;;5.07;;
53044;SDS011;38930;52.766;6.884;2023-02-28T07:39:35;8.82;;;5.30;;
53044;SDS011;38930;52.766;6.884;2023-02-28T07:42:04;7.82;;;5.05;;
53044;SDS011;38930;52.766;6.884;2023-02-28T07:44:31;8.10;;;5.10;;
53044;SDS011;38930;52.766;6.884;2023-02-28T07:46:57;7.28;;;5.20;;
53044;SDS011;38930;52.766;6.884;2023-02-28T07:49:23;10.43;;;5.85;;
53044;SDS011;38930;52.766;6.884;2023-02-28T07:51:49;11.35;;;5.78;;
53044;SDS011;38930;52.766;6.884;2023-02-28T07:54:14;8.93;;;5.93;;
53044;SDS011;38930;52.766;6.884;2023-02-28T07:56:40;8.07;;;5.65;;
53044;SDS011;38930;52.766;6.884;2023-02-28T07:59:05;8.93;;;6.05;;
53044;SDS011;38930;52.766;6.884;2023-02-28T08:01:31;7.55;;;5.40;;
53044;SDS011;38930;52.766;6.884;2023-02-28T08:03:56;8.50;;;5.63;;
53044;SDS011;38930;52.766;6.884;2023-02-28T08:06:23;14.25;;;6.40;;
53044;SDS011;38930;52.766;6.884;2023-02-28T08:08:50;9.95;;;5.15;;
53044;SDS011;38930;52.766;6.884;2023-02-28T08:11:17;9.25;;;4.88;;
53044;SDS011;38930;52.766;6.884;2023-02-28T08:13:44;7.25;;;4.63;;
53044;SDS011;38930;52.766;6.884;2023-02-28T08:16:11;8.50;;;4.63;;
53044;SDS011;38930;52.766;6.884;2023-02-28T08:18:40;8.23;;;5.10;;
53044;SDS011;38930;52.766;6.884;2023-02-28T08:21:09;7.57;;;4.80;;
53044;SDS011;38930;52.766;6.884;2023-02-28T08:23:35;6.88;;;4.88;;
53044;SDS011;38930;52.766;6.884;2023-02-28T08:26:01;5.70;;;4.33;;
53044;SDS011;38930;52.766;6.884;2023-02-28T08:28:27;7.57;;;4.85;;
53044;SDS011;38930;52.766;6.884;2023-02-28T08:30:53;5.47;;;4.43;;
53044;SDS011;38930;52.766;6.884;2023-02-28T08:33:19;7.97;;;4.72;;
53044;SDS011;38930;52.766;6.884;2023-02-28T08:35:45;7.30;;;5.10;;
53044;SDS011;38930;52.766;6.884;2023-02-28T08:38:10;7.07;;;4.90;;
53044;SDS011;38930;52.766;6.884;2023-02-28T08:40:36;11.57;;;5.43;;
53044;SDS011;38930;52.766;6.884;2023-02-28T08:43:02;10.07;;;5.63;;
53044;SDS011;38930;52.766;6.884;2023-02-28T08:45:27;8.30;;;6.55;;
53044;SDS011;38930;52.766;6.884;2023-02-28T08:47:56;11.20;;;7.13;;
53044;SDS011;38930;52.766;6.884;2023-02-28T08:50:21;9.90;;;7.10;;
53044;SDS011;38930;52.766;6.884;2023-02-28T08:52:47;8.95;;;6.25;;
53044;SDS011;38930;52.766;6.884;2023-02-28T08:55:13;12.48;;;5.88;;
53044;SDS011;38930;52.766;6.884;2023-02-28T08:57:38;10.07;;;6.32;;
53044;SDS011;38930;52.766;6.884;2023-02-28T09:00:04;8.88;;;6.00;;
53044;SDS011;38930;52.766;6.884;2023-02-28T09:02:31;8.30;;;5.87;;
53044;SDS011;38930;52.766;6.884;2023-02-28T09:04:56;7.35;;;5.22;;
53044;SDS011;38930;52.766;6.884;2023-02-28T09:07:23;11.23;;;5.28;;
53044;SDS011;38930;52.766;6.884;2023-02-28T09:09:49;7.47;;;5.40;;
53044;SDS011;38930;52.766;6.884;2023-02-28T09:12:19;8.63;;;5.25;;
53044;SDS011;38930;52.766;6.884;2023-02-28T09:14:49;9.15;;;5.32;;
53044;SDS011;38930;52.766;6.884;2023-02-28T09:17:14;6.68;;;4.47;;
53044;SDS011;38930;52.766;6.884;2023-02-28T09:19:41;7.60;;;4.57;;
53044;SDS011;38930;52.766;6.884;2023-02-28T09:22:07;6.07;;;3.92;;
53044;SDS011;38930;52.766;6.884;2023-02-28T09:24:33;6.07;;;3.45;;
53044;SDS011;38930;52.766;6.884;2023-02-28T09:27:00;7.88;;;3.58;;
53044;SDS011;38930;52.766;6.884;2023-02-28T09:29:25;4.55;;;3.10;;
53044;SDS011;38930;52.766;6.884;2023-02-28T09:31:51;5.18;;;3.30;;
53044;SDS011;38930;52.766;6.884;2023-02-28T09:34:17;6.15;;;2.63;;
53044;SDS011;38930;52.766;6.884;2023-02-28T09:36:43;8.48;;;2.53;;
53044;SDS011;38930;52.766;6.884;2023-02-28T09:39:08;5.30;;;2.65;;
53044;SDS011;38930;52.766;6.884;2023-02-28T09:41:39;4.50;;;2.72;;
53044;SDS011;38930;52.766;6.884;2023-02-28T09:44:15;5.35;;;2.17;;
53044;SDS011;38930;52.766;6.884;2023-02-28T09:46:46;3.95;;;2.60;;
53044;SDS011;38930;52.766;6.884;2023-02-28T09:49:18;4.28;;;2.50;;
53044;SDS011;38930;52.766;6.884;2023-02-28T09:54:18;5.40;;;2.47;;
53044;SDS011;38930;52.766;6.884;2023-02-28T09:57:00;2.28;;;1.98;;
53044;SDS011;38930;52.766;6.884;2023-02-28T10:06:59;4.05;;;2.20;;
53044;SDS011;38930;52.766;6.884;2023-02-28T10:09:31;2.53;;;2.00;;
53044;SDS011;38930;52.766;6.884;2023-02-28T10:12:03;5.82;;;2.20;;
53044;SDS011;38930;52.766;6.884;2023-02-28T10:14:34;6.60;;;2.00;;
53044;SDS011;38930;52.766;6.884;2023-02-28T10:17:08;3.05;;;2.10;;
53044;SDS011;38930;52.766;6.884;2023-02-28T10:22:37;3.03;;;1.90;;
53044;SDS011;38930;52.766;6.884;2023-02-28T10:25:24;3.30;;;1.83;;
53044;SDS011;38930;52.766;6.884;2023-02-28T10:28:07;4.15;;;2.22;;
53044;SDS011;38930;52.766;6.884;2023-02-28T10:30:40;3.63;;;2.08;;
53044;SDS011;38930;52.766;6.884;2023-02-28T10:35:55;2.95;;;1.95;;
53044;SDS011;38930;52.766;6.884;2023-02-28T10:38:23;2.83;;;2.17;;
53044;SDS011;38930;52.766;6.884;2023-02-28T10:40:51;3.20;;;2.10;;
53044;SDS011;38930;52.766;6.884;2023-02-28T10:45:58;2.40;;;1.88;;
53044;SDS011;38930;52.766;6.884;2023-02-28T10:48:34;4.32;;;2.10;;
53044;SDS011;38930;52.766;6.884;2023-02-28T10:51:26;3.20;;;1.83;;
53044;SDS011;38930;52.766;6.884;2023-02-28T10:54:01;2.72;;;1.92;;
53044;SDS011;38930;52.766;6.884;2023-02-28T10:56:28;2.50;;;1.77;;
53044;SDS011;38930;52.766;6.884;2023-02-28T11:03:55;4.57;;;1.73;;
53044;SDS011;38930;52.766;6.884;2023-02-28T11:06:23;2.22;;;1.73;;
53044;SDS011;38930;52.766;6.884;2023-02-28T11:09:01;3.10;;;2.10;;
53044;SDS011;38930;52.766;6.884;2023-02-28T11:11:43;2.38;;;1.92;;
53044;SDS011;38930;52.766;6.884;2023-02-28T11:14:22;3.20;;;2.10;;
53044;SDS011;38930;52.766;6.884;2023-02-28T11:16:50;5.20;;;1.95;;
53044;SDS011;38930;52.766;6.884;2023-02-28T11:19:27;4.20;;;1.80;;
53044;SDS011;38930;52.766;6.884;2023-02-28T11:22:04;4.82;;;1.83;;
53044;SDS011;38930;52.766;6.884;2023-02-28T11:24:33;2.45;;;1.63;;
53044;SDS011;38930;52.766;6.884;2023-02-28T11:27:05;2.13;;;1.80;;
53044;SDS011;38930;52.766;6.884;2023-02-28T11:29:32;3.75;;;2.00;;
53044;SDS011;38930;52.766;6.884;2023-02-28T11:34:46;3.55;;;2.03;;
53044;SDS011;38930;52.766;6.884;2023-02-28T11:37:25;2.88;;;1.98;;
53044;SDS011;38930;52.766;6.884;2023-02-28T11:39:53;3.47;;;1.60;;
53044;SDS011;38930;52.766;6.884;2023-02-28T11:42:23;4.22;;;2.05;;
53044;SDS011;38930;52.766;6.884;2023-02-28T11:45:03;2.88;;;1.92;;
53044;SDS011;38930;52.766;6.884;2023-02-28T11:47:47;3.13;;;2.10;;
53044;SDS011;38930;52.766;6.884;2023-02-28T11:53:31;2.88;;;2.25;;
53044;SDS011;38930;52.766;6.884;2023-02-28T11:56:23;5.22;;;2.30;;
53044;SDS011;38930;52.766;6.884;2023-02-28T12:07:58;4.13;;;3.00;;
53044;SDS011;38930;52.766;6.884;2023-02-28T12:10:43;3.10;;;2.40;;
53044;SDS011;38930;52.766;6.884;2023-02-28T12:13:28;2.80;;;2.00;;
53044;SDS011;38930;52.766;6.884;2023-02-28T12:22:40;4.43;;;2.30;;
53044;SDS011;38930;52.766;6.884;2023-02-28T12:28:07;3.17;;;2.08;;
53044;SDS011;38930;52.766;6.884;2023-02-28T12:30:39;3.53;;;2.20;;
53044;SDS011;38930;52.766;6.884;2023-02-28T12:33:12;3.17;;;2.22;;
53044;SDS011;38930;52.766;6.884;2023-02-28T12:35:44;5.10;;;2.28;;
53044;SDS011;38930;52.766;6.884;2023-02-28T12:38:22;3.53;;;2.00;;
53044;SDS011;38930;52.766;6.884;2023-02-28T12:43:22;3.08;;;2.30;;
53044;SDS011;38930;52.766;6.884;2023-02-28T12:48:46;4.10;;;2.10;;
53044;SDS011;38930;52.766;6.884;2023-02-28T12:51:17;3.67;;;2.13;;
53044;SDS011;38930;52.766;6.884;2023-02-28T12:56:32;3.40;;;2.30;;
53044;SDS011;38930;52.766;6.884;2023-02-28T12:59:01;2.88;;;2.35;;
53044;SDS011;38930;52.766;6.884;2023-02-28T13:05:23;4.65;;;2.55;;
53044;SDS011;38930;52.766;6.884;2023-02-28T13:10:40;4.97;;;2.47;;
53044;SDS011;38930;52.766;6.884;2023-02-28T13:13:13;3.40;;;2.20;;
53044;SDS011;38930;52.766;6.884;2023-02-28T13:15:57;3.58;;;2.10;;
53044;SDS011;38930;52.766;6.884;2023-02-28T13:20:57;3.83;;;1.98;;
53044;SDS011;38930;52.766;6.884;2023-02-28T13:23:59;3.70;;;2.00;;
53044;SDS011;38930;52.766;6.884;2023-02-28T13:26:20;3.13;;;2.10;;
53044;SDS011;38930;52.766;6.884;2023-02-28T13:34:34;3.53;;;2.17;;
53044;SDS011;38930;52.766;6.884;2023-02-28T13:39:54;4.75;;;2.30;;
53044;SDS011;38930;52.766;6.884;2023-02-28T13:42:36;2.50;;;2.15;;
53044;SDS011;38930;52.766;6.884;2023-02-28T13:47:43;3.40;;;2.03;;
53044;SDS011;38930;52.766;6.884;2023-02-28T13:50:18;3.28;;;2.25;;
53044;SDS011;38930;52.766;6.884;2023-02-28T14:01:24;3.08;;;1.92;;
53044;SDS011;38930;52.766;6.884;2023-02-28T14:06:54;2.42;;;1.48;;
53044;SDS011;38930;52.766;6.884;2023-02-28T14:11:53;2.90;;;1.90;;
53044;SDS011;38930;52.766;6.884;2023-02-28T14:17:01;2.60;;;2.00;;
53044;SDS011;38930;52.766;6.884;2023-02-28T14:19:32;5.93;;;2.15;;
53044;SDS011;38930;52.766;6.884;2023-02-28T14:24:34;2.70;;;1.67;;
53044;SDS011;38930;52.766;6.884;2023-02-28T14:27:11;2.85;;;2.05;;
53044;SDS011;38930;52.766;6.884;2023-02-28T14:30:15;4.10;;;1.90;;
53044;SDS011;38930;52.766;6.884;2023-02-28T14:38:35;3.28;;;1.90;;
53044;SDS011;38930;52.766;6.884;2023-02-28T14:41:06;2.38;;;1.90;;
53044;SDS011;38930;52.766;6.884;2023-02-28T14:43:47;2.42;;;1.90;;
53044;SDS011;38930;52.766;6.884;2023-02-28T14:46:17;3.25;;;2.50;;
53044;SDS011;38930;52.766;6.884;2023-02-28T14:48:45;4.82;;;1.90;;
53044;SDS011;38930;52.766;6.884;2023-02-28T14:51:12;3.60;;;2.05;;
53044;SDS011;38930;52.766;6.884;2023-02-28T14:53:46;2.78;;;1.88;;
53044;SDS011;38930;52.766;6.884;2023-02-28T14:56:22;4.63;;;2.20;;
53044;SDS011;38930;52.766;6.884;2023-02-28T14:58:56;2.60;;;1.90;;
53044;SDS011;38930;52.766;6.884;2023-02-28T15:01:23;4.43;;;2.05;;
53044;SDS011;38930;52.766;6.884;2023-02-28T15:04:15;5.38;;;2.20;;
53044;SDS011;38930;52.766;6.884;2023-02-28T15:06:43;4.13;;;2.20;;
53044;SDS011;38930;52.766;6.884;2023-02-28T15:09:10;8.20;;;2.50;;
53044;SDS011;38930;52.766;6.884;2023-02-28T15:11:40;3.75;;;2.28;;
53044;SDS011;38930;52.766;6.884;2023-02-28T15:14:06;4.78;;;2.00;;
53044;SDS011;38930;52.766;6.884;2023-02-28T15:16:39;4.03;;;2.08;;
53044;SDS011;38930;52.766;6.884;2023-02-28T15:19:16;5.63;;;2.10;;
53044;SDS011;38930;52.766;6.884;2023-02-28T15:21:45;3.03;;;1.90;;
53044;SDS011;38930;52.766;6.884;2023-02-28T15:27:05;4.15;;;2.35;;
53044;SDS011;38930;52.766;6.884;2023-02-28T15:29:41;3.60;;;2.25;;
53044;SDS011;38930;52.766;6.884;2023-02-28T15:32:30;3.08;;;2.47;;
53044;SDS011;38930;52.766;6.884;2023-02-28T15:37:48;3.75;;;2.08;;
53044;SDS011;38930;52.766;6.884;2023-02-28T15:40:23;4.55;;;2.25;;
53044;SDS011;38930;52.766;6.884;2023-02-28T15:43:13;4.75;;;1.90;;
53044;SDS011;38930;52.766;6.884;2023-02-28T15:45:45;3.40;;;2.17;;
53044;SDS011;38930;52.766;6.884;2023-02-28T15:48:20;3.20;;;2.30;;
53044;SDS011;38930;52.766;6.884;2023-02-28T15:50:52;3.92;;;2.58;;
53044;SDS011;38930;52.766;6.884;2023-02-28T15:53:22;3.10;;;2.13;;
53044;SDS011;38930;52.766;6.884;2023-02-28T15:55:54;6.68;;;2.30;;
53044;SDS011;38930;52.766;6.884;2023-02-28T15:58:32;5.40;;;2.50;;
53044;SDS011;38930;52.766;6.884;2023-02-28T16:01:01;3.97;;;2.15;;
53044;SDS011;38930;52.766;6.884;2023-02-28T16:03:41;5.20;;;2.70;;
53044;SDS011;38930;52.766;6.884;2023-02-28T16:06:21;4.20;;;2.75;;
53044;SDS011;38930;52.766;6.884;2023-02-28T16:08:54;4.78;;;2.30;;
53044;SDS011;38930;52.766;6.884;2023-02-28T16:11:20;2.88;;;2.28;;
53044;SDS011;38930;52.766;6.884;2023-02-28T16:16:16;4.10;;;2.53;;
53044;SDS011;38930;52.766;6.884;2023-02-28T16:18:44;2.95;;;2.50;;
53044;SDS011;38930;52.766;6.884;2023-02-28T16:21:12;4.20;;;2.50;;
53044;SDS011;38930;52.766;6.884;2023-02-28T16:23:44;3.60;;;2.73;;
53044;SDS011;38930;52.766;6.884;2023-02-28T16:26:32;3.25;;;2.70;;
53044;SDS011;38930;52.766;6.884;2023-02-28T16:29:01;6.72;;;2.72;;
53044;SDS011;38930;52.766;6.884;2023-02-28T16:31:43;3.92;;;2.50;;
53044;SDS011;38930;52.766;6.884;2023-02-28T16:34:12;6.43;;;2.72;;
53044;SDS011;38930;52.766;6.884;2023-02-28T16:36:51;4.53;;;2.67;;
53044;SDS011;38930;52.766;6.884;2023-02-28T16:39:20;3.95;;;2.63;;
53044;SDS011;38930;52.766;6.884;2023-02-28T16:42:20;4.73;;;2.83;;
53044;SDS011;38930;52.766;6.884;2023-02-28T16:44:49;4.50;;;2.75;;
53044;SDS011;38930;52.766;6.884;2023-02-28T16:47:15;3.95;;;2.60;;
53044;SDS011;38930;52.766;6.884;2023-02-28T16:49:41;4.82;;;2.92;;
53044;SDS011;38930;52.766;6.884;2023-02-28T16:52:08;5.63;;;3.05;;
53044;SDS011;38930;52.766;6.884;2023-02-28T16:54:34;5.38;;;3.15;;
53044;SDS011;38930;52.766;6.884;2023-02-28T16:57:00;4.45;;;3.17;;
53044;SDS011;38930;52.766;6.884;2023-02-28T16:59:26;6.38;;;3.50;;
53044;SDS011;38930;52.766;6.884;2023-02-28T17:04:19;5.00;;;3.20;;
53044;SDS011;38930;52.766;6.884;2023-02-28T17:06:45;4.07;;;3.33;;
53044;SDS011;38930;52.766;6.884;2023-02-28T17:09:14;6.65;;;3.47;;
53044;SDS011;38930;52.766;6.884;2023-02-28T17:11:42;6.43;;;4.05;;
53044;SDS011;38930;52.766;6.884;2023-02-28T17:14:08;5.63;;;3.95;;
53044;SDS011;38930;52.766;6.884;2023-02-28T17:16:34;7.00;;;4.65;;
53044;SDS011;38930;52.766;6.884;2023-02-28T17:19:03;9.68;;;4.18;;
53044;SDS011;38930;52.766;6.884;2023-02-28T17:21:30;5.47;;;3.60;;
53044;SDS011;38930;52.766;6.884;2023-02-28T17:23:56;8.18;;;4.90;;
53044;SDS011;38930;52.766;6.884;2023-02-28T17:26:23;7.13;;;4.57;;
53044;SDS011;38930;52.766;6.884;2023-02-28T17:28:52;5.88;;;3.80;;
53044;SDS011;38930;52.766;6.884;2023-02-28T17:31:20;7.20;;;3.95;;
53044;SDS011;38930;52.766;6.884;2023-02-28T17:33:47;5.38;;;3.45;;